Time;durP1;ratioP1;P1;durP2;ratioP2;P2;SDS_P1;SDS_P2;PMS_P1;PMS_P2;Temp;Humidity;BMP_temperature;BMP_pressure;BME280_temperature;BME280_humidity;BME280_pressure;Samples;Min_cycle;Max_cycle;Signal;HPM_P1;HPM_P2
2022/12/25 00:01:15;;;;;;;93.70;38.83;;;5.80;99.90;;;;;;4915741;28;20042;-70
2022/12/25 00:03:41;;;;;;;115.00;42.85;;;5.80;99.90;;;;;;4915084;28;20050;-80
2022/12/25 00:06:10;;;;;;;113.32;41.55;;;5.80;99.90;;;;;;4918716;28;20034;-80
2022/12/25 00:08:38;;;;;;;92.72;38.13;;;5.80;99.90;;;;;;4924822;28;20419;-81
2022/12/25 00:11:07;;;;;;;84.43;36.28;;;5.70;99.90;;;;;;4932048;28;20089;-81
2022/12/25 00:13:33;;;;;;;105.95;41.17;;;5.80;99.90;;;;;;4908965;28;20043;-80
2022/12/25 00:15:59;;;;;;;106.50;40.15;;;5.70;99.90;;;;;;4913787;29;20054;-80
2022/12/25 00:18:25;;;;;;;112.50;42.47;;;5.70;99.90;;;;;;4906600;28;20048;-81
2022/12/25 00:21:02;;;;;;;131.90;47.00;;;5.70;99.90;;;;;;4927462;29;20044;-80
2022/12/25 00:23:29;;;;;;;114.32;42.08;;;5.70;99.90;;;;;;4906493;29;20047;-80
2022/12/25 00:25:55;;;;;;;138.20;48.50;;;5.70;99.90;;;;;;4909377;29;20131;-71
2022/12/25 00:28:21;;;;;;;106.22;42.80;;;5.70;99.90;;;;;;4926927;29;20082;-71
2022/12/25 00:30:50;;;;;;;202.10;58.70;;;5.70;99.90;;;;;;4890388;29;20684;-71
2022/12/25 00:33:19;;;;;;;138.27;46.70;;;5.70;99.90;;;;;;4917672;29;20048;-71
2022/12/25 00:35:59;;;;;;;93.30;42.17;;;5.70;99.90;;;;;;4897868;29;20097;-70
2022/12/25 00:38:26;;;;;;;157.02;54.90;;;5.70;99.90;;;;;;4907048;29;20089;-71
2022/12/25 00:40:52;;;;;;;140.80;50.75;;;5.70;99.90;;;;;;4893930;29;20418;-70
2022/12/25 00:43:18;;;;;;;141.95;51.63;;;5.70;99.90;;;;;;4922814;28;20052;-70
2022/12/25 00:45:52;;;;;;;132.98;50.83;;;5.70;99.90;;;;;;4890876;28;20058;-71
2022/12/25 00:48:21;;;;;;;130.82;48.67;;;5.70;99.90;;;;;;4907057;29;20048;-81
2022/12/25 00:50:47;;;;;;;175.48;57.05;;;5.70;99.90;;;;;;4911945;29;20461;-71
2022/12/25 00:53:15;;;;;;;170.75;55.90;;;5.70;99.90;;;;;;4908986;29;20055;-70
2022/12/25 00:55:41;;;;;;;179.45;56.05;;;5.70;99.90;;;;;;4925132;29;20082;-71
2022/12/25 00:58:07;;;;;;;98.90;42.72;;;5.80;99.90;;;;;;4926035;29;20051;-80
2022/12/25 01:00:33;;;;;;;105.90;43.70;;;5.80;99.90;;;;;;4906401;29;20576;-80
2022/12/25 01:02:59;;;;;;;113.47;45.92;;;5.80;99.90;;;;;;4908482;29;20078;-81
2022/12/25 01:05:24;;;;;;;212.13;60.22;;;5.80;99.90;;;;;;4907573;29;20046;-81
2022/12/25 01:07:50;;;;;;;134.38;50.35;;;5.80;99.90;;;;;;4909030;29;20613;-80
2022/12/25 01:10:25;;;;;;;122.43;48.10;;;5.80;99.90;;;;;;4908745;29;20107;-81
2022/12/25 01:12:51;;;;;;;160.85;54.58;;;5.80;99.90;;;;;;4906913;29;20471;-80
2022/12/25 01:15:18;;;;;;;130.45;50.63;;;5.80;99.90;;;;;;4904350;29;20050;-80
2022/12/25 01:17:44;;;;;;;213.18;56.28;;;5.80;99.90;;;;;;4915350;28;20121;-81
2022/12/25 01:20:10;;;;;;;173.25;55.25;;;5.80;99.90;;;;;;4912706;28;20114;-81
2022/12/25 01:22:36;;;;;;;244.45;66.45;;;5.90;99.90;;;;;;4912534;28;20036;-81
2022/12/25 01:25:06;;;;;;;138.60;47.85;;;5.90;99.90;;;;;;4928947;28;20054;-81
2022/12/25 01:27:32;;;;;;;248.20;64.07;;;5.80;99.90;;;;;;4918613;28;20051;-80
2022/12/25 01:29:58;;;;;;;157.00;48.67;;;5.90;99.90;;;;;;4899422;28;20082;-81
2022/12/25 01:32:24;;;;;;;241.27;58.47;;;5.90;99.90;;;;;;4928333;28;20695;-80
2022/12/25 01:34:50;;;;;;;173.75;52.05;;;5.80;99.90;;;;;;4929068;28;20051;-80
2022/12/25 01:37:16;;;;;;;153.25;48.92;;;5.90;99.90;;;;;;4898417;28;20136;-80
2022/12/25 01:39:48;;;;;;;212.77;61.17;;;5.90;99.90;;;;;;4898239;28;20071;-81
2022/12/25 01:42:19;;;;;;;167.88;53.15;;;5.90;99.90;;;;;;4927987;28;20684;-80
2022/12/25 01:44:44;;;;;;;236.45;64.75;;;5.90;99.90;;;;;;4915299;28;20043;-80
2022/12/25 01:47:11;;;;;;;168.55;57.25;;;5.90;99.90;;;;;;4931160;28;20051;-81
2022/12/25 01:49:39;;;;;;;165.00;55.38;;;5.90;99.90;;;;;;4931609;28;20564;-81
2022/12/25 01:52:13;;;;;;;117.35;49.00;;;6.00;99.90;;;;;;4899017;28;20063;-80
2022/12/25 01:54:51;;;;;;;94.22;43.90;;;6.00;99.90;;;;;;4908179;28;20047;-80
2022/12/25 01:57:22;;;;;;;101.93;45.22;;;6.00;99.90;;;;;;4927788;28;20133;-81
2022/12/25 01:59:52;;;;;;;97.15;44.72;;;6.10;99.90;;;;;;4927382;28;20055;-81
2022/12/25 02:02:19;;;;;;;98.18;44.13;;;6.10;99.90;;;;;;4912100;28;20702;-80
2022/12/25 02:04:52;;;;;;;85.40;41.58;;;6.10;99.90;;;;;;4924577;28;20521;-81
2022/12/25 02:07:21;;;;;;;85.30;42.53;;;6.10;99.90;;;;;;4912732;28;20672;-82
2022/12/25 02:09:47;;;;;;;89.25;41.15;;;6.20;99.90;;;;;;4913749;28;20546;-81
2022/12/25 02:12:36;;;;;;;90.93;42.15;;;6.30;99.90;;;;;;4928119;28;20042;-80
2022/12/25 02:15:07;;;;;;;119.78;47.15;;;6.30;99.90;;;;;;4915992;28;20058;-81
2022/12/25 02:17:35;;;;;;;103.13;43.42;;;6.40;99.90;;;;;;4924741;28;20584;-81
2022/12/25 02:20:29;;;;;;;82.22;38.88;;;6.40;99.90;;;;;;4902524;29;20070;-80
2022/12/25 02:23:24;;;;;;;76.63;37.42;;;6.40;99.90;;;;;;4923581;29;20066;-80
2022/12/25 02:26:06;;;;;;;95.20;41.85;;;6.40;99.90;;;;;;4924460;28;20565;-81
2022/12/25 02:28:53;;;;;;;87.78;39.95;;;6.40;99.90;;;;;;4908400;29;20055;-80
2022/12/25 02:31:45;;;;;;;75.88;37.03;;;6.40;99.90;;;;;;4905125;29;20043;-81
2022/12/25 02:34:19;;;;;;;78.18;38.00;;;6.50;99.90;;;;;;4919570;28;20047;-81
2022/12/25 02:37:06;;;;;;;69.32;35.92;;;6.40;99.90;;;;;;4911276;29;20047;-80
2022/12/25 02:39:56;;;;;;;86.57;36.67;;;6.50;99.90;;;;;;4909694;28;20053;-81
2022/12/25 03:06:41;;;;;;;99.93;42.08;;;6.60;99.90;;;;;;4906326;29;20130;-80
2022/12/25 03:08:16;;;;;;;80.25;35.70;;;7.00;99.90;;;;;;4921935;28;20043;-81
2022/12/25 03:13:38;;;;;;;84.00;39.33;;;7.10;99.90;;;;;;4925218;28;20568;-81
2022/12/25 03:18:49;;;;;;;80.30;38.20;;;7.10;99.90;;;;;;4916695;28;20197;-81
2022/12/25 03:26:54;;;;;;;76.55;36.67;;;7.30;99.90;;;;;;4929897;28;20051;-81
2022/12/25 03:32:11;;;;;;;60.50;32.53;;;7.30;99.90;;;;;;4932535;28;20604;-81
2022/12/25 04:36:49;;;;;;;78.40;37.30;;;7.50;99.90;;;;;;4931120;29;20134;-81
2022/12/25 04:39:15;;;;;;;74.25;36.28;;;7.50;99.90;;;;;;4917768;28;20138;-81
2022/12/25 04:41:41;;;;;;;88.78;39.90;;;7.50;99.90;;;;;;4882522;29;20035;-81
2022/12/25 04:44:08;;;;;;;92.68;39.38;;;7.50;99.90;;;;;;4917731;28;20482;-81
2022/12/25 04:46:37;;;;;;;100.25;41.08;;;7.50;99.90;;;;;;4930300;28;20035;-81
2022/12/25 04:49:03;;;;;;;92.55;41.85;;;7.60;99.90;;;;;;4900858;29;20158;-80
2022/12/25 04:51:29;;;;;;;93.30;43.10;;;7.60;99.90;;;;;;4908619;28;20704;-81
2022/12/25 04:53:55;;;;;;;93.93;43.45;;;7.70;99.90;;;;;;4923006;28;20047;-80
2022/12/25 04:56:21;;;;;;;80.32;39.38;;;7.70;99.90;;;;;;4910925;28;20514;-80
2022/12/25 04:58:47;;;;;;;101.60;43.15;;;7.70;99.90;;;;;;4939643;28;20043;-80
2022/12/25 05:01:14;;;;;;;98.82;45.33;;;7.80;99.90;;;;;;4923681;28;20506;-81
2022/12/25 05:03:39;;;;;;;105.07;45.63;;;7.80;99.90;;;;;;4896935;29;20047;-80
2022/12/25 05:06:06;;;;;;;113.15;47.30;;;7.80;99.90;;;;;;4936950;28;20073;-80
2022/12/25 05:08:35;;;;;;;99.10;45.28;;;7.80;99.90;;;;;;4930146;28;20059;-80
2022/12/25 05:11:06;;;;;;;106.97;47.78;;;7.90;99.90;;;;;;4914631;28;20496;-80
2022/12/25 05:13:32;;;;;;;127.95;50.38;;;7.90;99.90;;;;;;4930679;28;20050;-80
2022/12/25 05:15:57;;;;;;;128.65;50.15;;;7.90;99.90;;;;;;4938880;28;20052;-80
2022/12/25 05:18:23;;;;;;;128.75;52.05;;;7.90;99.90;;;;;;4941969;28;20066;-80
2022/12/25 05:20:53;;;;;;;114.28;48.20;;;8.00;99.90;;;;;;4907873;28;20058;-80
2022/12/25 05:23:20;;;;;;;118.72;51.10;;;8.00;99.90;;;;;;4923039;28;20055;-81
2022/12/25 05:25:46;;;;;;;124.43;49.33;;;8.00;99.90;;;;;;4914182;29;20035;-80
2022/12/25 05:28:12;;;;;;;142.70;53.35;;;8.10;99.90;;;;;;4904980;28;20106;-81
2022/12/25 05:30:38;;;;;;;139.52;53.22;;;8.10;99.90;;;;;;4903823;29;20051;-80
2022/12/25 05:33:04;;;;;;;131.30;53.10;;;8.10;99.90;;;;;;4924194;28;20047;-81
2022/12/25 05:35:30;;;;;;;128.70;52.92;;;8.10;99.90;;;;;;4920727;28;20051;-81
2022/12/25 05:37:59;;;;;;;128.80;53.38;;;8.10;99.90;;;;;;4895535;28;20051;-81
2022/12/25 05:40:25;;;;;;;126.60;51.42;;;8.10;99.90;;;;;;4914214;28;20059;-81
2022/12/25 05:42:50;;;;;;;114.88;49.67;;;8.20;99.90;;;;;;4927698;28;20046;-81
2022/12/25 05:45:16;;;;;;;104.72;47.90;;;8.20;99.90;;;;;;4898487;28;20051;-81
2022/12/25 05:47:42;;;;;;;107.35;48.53;;;8.20;99.90;;;;;;4913722;28;20051;-81
2022/12/25 05:50:10;;;;;;;102.60;48.17;;;8.20;99.90;;;;;;4915217;28;20391;-70
2022/12/25 05:52:36;;;;;;;116.38;50.42;;;8.20;99.90;;;;;;4920236;29;20129;-70
2022/12/25 05:55:01;;;;;;;113.15;49.63;;;8.30;99.90;;;;;;4900738;28;20067;-71
2022/12/25 05:57:28;;;;;;;106.28;48.28;;;8.30;99.90;;;;;;4921033;29;20387;-71
2022/12/25 05:59:54;;;;;;;113.70;50.25;;;8.30;99.90;;;;;;4892166;29;20078;-71
2022/12/25 06:02:19;;;;;;;119.45;50.33;;;8.30;99.90;;;;;;4893102;28;20065;-71
2022/12/25 06:04:45;;;;;;;110.90;51.25;;;8.30;99.90;;;;;;4910542;29;20186;-71
2022/12/25 06:07:11;;;;;;;119.65;51.05;;;8.30;99.90;;;;;;4912873;29;20573;-71
2022/12/25 06:09:37;;;;;;;116.72;50.58;;;8.30;99.90;;;;;;4896002;29;20052;-71
2022/12/25 06:12:09;;;;;;;123.85;51.85;;;8.30;99.90;;;;;;4892025;28;20529;-71
2022/12/25 06:14:35;;;;;;;148.80;55.33;;;8.30;99.90;;;;;;4925584;29;20440;-71
2022/12/25 06:17:01;;;;;;;118.07;51.70;;;8.30;99.90;;;;;;4896829;29;20060;-71
2022/12/25 06:19:27;;;;;;;127.93;53.88;;;8.30;99.90;;;;;;4891661;29;20386;-80
2022/12/25 06:21:54;;;;;;;138.98;53.47;;;8.30;99.90;;;;;;4908232;29;20040;-80
2022/12/25 06:24:23;;;;;;;117.65;49.42;;;8.30;99.90;;;;;;4919751;29;20473;-80
2022/12/25 06:26:49;;;;;;;119.88;50.72;;;8.30;99.90;;;;;;4907970;29;20050;-81
2022/12/25 06:29:24;;;;;;;136.02;54.90;;;8.40;99.90;;;;;;4921722;29;20050;-80
2022/12/25 06:31:55;;;;;;;103.85;47.95;;;8.40;99.90;;;;;;4905383;29;20036;-80
2022/12/25 06:34:21;;;;;;;86.53;45.75;;;8.40;99.90;;;;;;4920169;29;20055;-80
2022/12/25 06:36:47;;;;;;;85.05;46.42;;;8.40;99.90;;;;;;4908486;29;20092;-81
2022/12/25 06:39:13;;;;;;;103.85;48.60;;;8.40;99.90;;;;;;4908453;29;20060;-80
2022/12/25 06:41:39;;;;;;;112.70;49.00;;;8.40;99.90;;;;;;4906401;29;20036;-81
2022/12/25 06:44:05;;;;;;;96.40;48.40;;;8.50;99.90;;;;;;4926337;29;20058;-81
2022/12/25 06:46:31;;;;;;;95.28;47.05;;;8.40;99.90;;;;;;4924409;29;20036;-80
2022/12/25 06:48:58;;;;;;;85.78;45.75;;;8.50;99.90;;;;;;4909342;29;20052;-81
2022/12/25 06:51:31;;;;;;;94.82;46.78;;;8.50;99.90;;;;;;4889756;29;21150;-81
2022/12/25 06:53:58;;;;;;;90.75;45.63;;;8.50;99.90;;;;;;4928136;29;20059;-81
2022/12/25 06:56:26;;;;;;;104.75;48.80;;;8.50;99.90;;;;;;4912282;29;20067;-81
2022/12/25 06:58:58;;;;;;;89.78;45.15;;;8.50;99.90;;;;;;4914189;29;20059;-80
2022/12/25 07:01:28;;;;;;;70.95;41.28;;;8.50;99.90;;;;;;4911655;29;20091;-81
2022/12/25 07:03:58;;;;;;;83.20;42.50;;;8.50;99.90;;;;;;4926522;29;20047;-80
2022/12/25 07:06:23;;;;;;;92.53;45.97;;;8.50;99.90;;;;;;4912845;29;20055;-80
2022/12/25 07:08:52;;;;;;;90.63;44.35;;;8.50;99.90;;;;;;4926909;29;20050;-81
2022/12/25 07:11:19;;;;;;;88.70;44.15;;;8.50;99.90;;;;;;4910808;29;20047;-81
2022/12/25 07:13:45;;;;;;;78.72;43.05;;;8.50;99.90;;;;;;4909773;29;20050;-81
2022/12/25 07:16:12;;;;;;;92.43;45.75;;;8.50;99.90;;;;;;4925958;28;20039;-80
2022/12/25 07:18:39;;;;;;;79.15;41.55;;;8.50;99.90;;;;;;4910972;29;20051;-80
2022/12/25 07:21:14;;;;;;;79.43;43.20;;;8.50;99.90;;;;;;4911562;29;20075;-81
2022/12/25 07:23:45;;;;;;;94.82;44.28;;;8.50;99.90;;;;;;4924399;29;20047;-81
2022/12/25 07:26:11;;;;;;;80.72;43.60;;;8.50;99.90;;;;;;4916882;29;20054;-80
2022/12/25 07:28:37;;;;;;;83.53;41.50;;;8.50;99.90;;;;;;4897495;29;20051;-81
2022/12/25 07:31:15;;;;;;;71.60;38.95;;;8.50;99.90;;;;;;4908219;29;20143;-81
2022/12/25 07:33:41;;;;;;;98.10;45.40;;;8.50;99.90;;;;;;4926658;28;20056;-81
2022/12/25 07:36:07;;;;;;;99.07;45.25;;;8.50;99.90;;;;;;4912431;29;20046;-81
2022/12/25 07:38:33;;;;;;;73.38;41.20;;;8.50;99.90;;;;;;4894973;29;20040;-81
2022/12/25 07:40:59;;;;;;;75.35;40.75;;;8.50;99.90;;;;;;4924858;29;20102;-80
2022/12/25 07:43:25;;;;;;;63.97;37.95;;;8.50;99.90;;;;;;4927766;29;20126;-81
2022/12/25 07:45:58;;;;;;;75.32;39.42;;;8.50;99.90;;;;;;4895246;29;20130;-81
2022/12/25 07:48:25;;;;;;;80.22;41.33;;;8.50;99.90;;;;;;4928276;29;20094;-80
2022/12/25 07:50:59;;;;;;;72.72;41.85;;;8.50;99.90;;;;;;4925493;29;20131;-81
2022/12/25 07:53:25;;;;;;;73.70;38.80;;;8.50;99.90;;;;;;4925931;29;20061;-81
2022/12/25 07:56:03;;;;;;;65.28;36.72;;;8.50;99.90;;;;;;4911750;29;20051;-81
2022/12/25 07:58:30;;;;;;;60.10;35.67;;;8.50;99.90;;;;;;4910160;29;20052;-80
2022/12/25 08:01:05;;;;;;;56.15;34.85;;;8.50;99.90;;;;;;4924887;29;20059;-81
2022/12/25 08:03:33;;;;;;;57.95;34.45;;;8.50;99.90;;;;;;4921176;29;20052;-81
2022/12/25 08:06:07;;;;;;;55.30;33.67;;;8.50;99.90;;;;;;4910367;29;20048;-81
2022/12/25 08:08:34;;;;;;;47.42;32.10;;;8.50;99.90;;;;;;4924628;29;20055;-80
2022/12/25 08:11:00;;;;;;;51.95;32.00;;;8.50;99.90;;;;;;4910769;29;20051;-80
2022/12/25 08:13:29;;;;;;;50.15;31.17;;;8.40;99.90;;;;;;4906897;29;20040;-80
2022/12/25 08:16:04;;;;;;;43.08;29.48;;;8.50;99.90;;;;;;4926823;29;20051;-80
2022/12/25 08:18:30;;;;;;;44.45;29.90;;;8.50;99.90;;;;;;4925231;29;20075;-80
2022/12/25 08:21:01;;;;;;;45.13;29.08;;;8.50;99.90;;;;;;4926012;29;20552;-80
2022/12/25 08:23:27;;;;;;;48.42;29.58;;;8.50;99.90;;;;;;4927141;29;20054;-81
2022/12/25 08:25:52;;;;;;;50.92;29.95;;;8.50;99.90;;;;;;4878305;29;20043;-81
2022/12/25 08:28:18;;;;;;;38.97;26.90;;;8.50;99.90;;;;;;4892918;29;20050;-80
2022/12/25 08:30:44;;;;;;;42.83;27.52;;;8.50;99.90;;;;;;4893184;29;20044;-81
2022/12/25 08:33:10;;;;;;;41.58;26.35;;;8.50;99.90;;;;;;4909832;29;20138;-81
2022/12/25 08:35:36;;;;;;;40.53;26.58;;;8.50;99.90;;;;;;4910309;29;20123;-80
2022/12/25 08:38:02;;;;;;;37.90;23.92;;;8.50;99.90;;;;;;4893811;29;20050;-81
2022/12/25 08:40:27;;;;;;;38.85;23.92;;;8.50;99.90;;;;;;4926727;29;20106;-81
2022/12/25 08:42:56;;;;;;;33.78;23.60;;;8.50;99.90;;;;;;4894418;29;20035;-80
2022/12/25 08:45:22;;;;;;;38.58;24.60;;;8.50;99.90;;;;;;4910099;29;20234;-81
2022/12/25 08:47:54;;;;;;;37.45;23.40;;;8.50;99.90;;;;;;4923042;29;20050;-80
2022/12/25 08:50:21;;;;;;;30.88;22.42;;;8.50;99.90;;;;;;4924414;29;20120;-81
2022/12/25 08:52:47;;;;;;;30.75;22.13;;;8.50;99.90;;;;;;4921012;29;20063;-81
2022/12/25 08:55:13;;;;;;;33.42;21.33;;;8.50;99.90;;;;;;4905857;29;20036;-81
2022/12/25 08:57:39;;;;;;;33.78;21.05;;;8.50;99.90;;;;;;4924322;29;20546;-80
2022/12/25 09:00:05;;;;;;;36.00;21.92;;;8.50;99.90;;;;;;4906619;29;20110;-80
2022/12/25 09:02:31;;;;;;;37.67;24.17;;;8.50;99.90;;;;;;4926265;29;20498;-80
2022/12/25 09:04:57;;;;;;;33.17;20.52;;;8.50;99.90;;;;;;4894331;29;20057;-80
2022/12/25 09:07:22;;;;;;;35.65;22.92;;;8.50;99.90;;;;;;4893309;29;20071;-80
2022/12/25 09:09:48;;;;;;;32.17;20.70;;;8.50;99.90;;;;;;4908054;29;20051;-80
2022/12/25 09:12:14;;;;;;;35.97;20.85;;;8.50;99.90;;;;;;4891840;29;20074;-80
2022/12/25 09:14:40;;;;;;;33.17;19.00;;;8.50;99.90;;;;;;4909213;29;20067;-81
2022/12/25 09:17:06;;;;;;;30.35;18.50;;;8.50;99.90;;;;;;4908536;29;20606;-81
2022/12/25 09:19:31;;;;;;;29.60;19.50;;;8.50;99.90;;;;;;4909432;29;20047;-80
2022/12/25 09:21:57;;;;;;;31.20;20.33;;;8.50;99.90;;;;;;4925235;29;20071;-81
2022/12/25 09:24:23;;;;;;;35.92;19.67;;;8.50;99.90;;;;;;4922782;29;20054;-80
2022/12/25 09:26:49;;;;;;;30.23;18.10;;;8.50;99.90;;;;;;4919164;29;20055;-80
2022/12/25 09:29:16;;;;;;;25.52;17.58;;;8.50;99.90;;;;;;4887788;29;20052;-80
2022/12/25 09:31:42;;;;;;;28.00;16.80;;;8.50;99.90;;;;;;4907476;29;20074;-80
2022/12/25 09:34:09;;;;;;;30.88;18.15;;;8.50;99.90;;;;;;4890376;29;20171;-81
2022/12/25 09:36:35;;;;;;;25.30;17.67;;;8.50;99.90;;;;;;4904791;29;20070;-80
2022/12/25 09:39:01;;;;;;;24.90;17.27;;;8.50;99.90;;;;;;4905302;29;20352;-80
2022/12/25 09:41:39;;;;;;;26.77;16.80;;;8.50;99.90;;;;;;4903948;29;20051;-81
2022/12/25 09:44:18;;;;;;;23.85;17.27;;;8.60;99.90;;;;;;4920581;29;20122;-80
2022/12/25 09:46:49;;;;;;;26.87;17.60;;;8.60;99.90;;;;;;4916829;29;20135;-81
2022/12/25 09:49:35;;;;;;;26.27;17.73;;;8.60;99.90;;;;;;4932979;28;20308;-80
2022/12/25 09:52:16;;;;;;;26.10;17.00;;;8.60;99.90;;;;;;4905516;29;20048;-80
2022/12/25 09:55:00;;;;;;;;;;;8.60;99.90;;;;;;4923231;29;20392;-81
2022/12/25 09:57:26;;;;;;;21.67;15.15;;;8.60;99.90;;;;;;4926985;29;19926;-80
2022/12/25 09:59:55;;;;;;;30.67;17.33;;;8.60;99.90;;;;;;4903828;29;20113;-71
2022/12/25 10:02:40;;;;;;;25.67;17.25;;;8.60;99.90;;;;;;4901739;29;20044;-71
2022/12/25 10:05:38;;;;;;;23.17;16.08;;;8.70;99.90;;;;;;4922237;29;20055;-71
2022/12/25 10:08:48;;;;;;;28.48;16.95;;;8.70;99.90;;;;;;4932919;28;20526;-80
2022/12/25 10:11:29;;;;;;;28.48;17.67;;;8.70;99.90;;;;;;4921169;29;20494;-80
2022/12/25 10:14:11;;;;;;;24.88;17.70;;;8.70;99.90;;;;;;4912902;29;20217;-80
2022/12/25 10:16:44;;;;;;;26.33;16.75;;;8.70;99.90;;;;;;4925249;28;20079;-79
2022/12/25 10:19:13;;;;;;;26.73;16.60;;;8.70;99.90;;;;;;4930616;28;20058;-80
2022/12/25 10:21:40;;;;;;;22.85;15.95;;;8.70;99.90;;;;;;4921605;29;20047;-80
2022/12/25 10:24:25;;;;;;;23.75;16.60;;;8.70;99.90;;;;;;4919930;28;20059;-71
2022/12/25 10:26:53;;;;;;;23.77;15.75;;;8.70;99.90;;;;;;4916909;28;20281;-71
2022/12/25 10:29:18;;;;;;;22.05;16.02;;;8.80;99.90;;;;;;4930547;28;20061;-71
2022/12/25 10:31:52;;;;;;;22.85;16.58;;;8.80;99.90;;;;;;4917384;28;20059;-71
2022/12/25 10:34:18;;;;;;;20.02;14.52;;;8.80;99.90;;;;;;4922294;28;20539;-71
2022/12/25 10:36:45;;;;;;;21.23;14.95;;;8.80;99.90;;;;;;4934285;29;20063;-71
2022/12/25 10:39:23;;;;;;;21.52;15.40;;;8.80;99.90;;;;;;4931489;28;20235;-81
2022/12/25 10:42:07;;;;;;;22.33;15.45;;;8.80;99.90;;;;;;4947359;28;20047;-80
2022/12/25 10:44:33;;;;;;;20.50;14.68;;;8.80;99.90;;;;;;4914362;28;20142;-80
2022/12/25 10:47:01;;;;;;;21.83;15.15;;;8.90;99.90;;;;;;4912957;28;20047;-80
2022/12/25 10:49:37;;;;;;;21.83;14.45;;;8.90;99.90;;;;;;4919501;28;20046;-81
2022/12/25 10:52:16;;;;;;;22.15;14.40;;;8.90;99.90;;;;;;4924587;28;20143;-79
2022/12/25 10:54:43;;;;;;;22.03;14.87;;;8.90;99.90;;;;;;4935283;28;20059;-80
2022/12/25 10:57:08;;;;;;;20.13;13.85;;;8.90;99.90;;;;;;4908323;28;20146;-79
2022/12/25 10:59:42;;;;;;;19.77;13.80;;;9.00;99.90;;;;;;4936076;28;20215;-79
2022/12/25 11:02:34;;;;;;;19.15;14.10;;;9.00;99.90;;;;;;4928517;28;20048;-80
2022/12/25 11:05:11;;;;;;;17.10;12.52;;;9.00;99.90;;;;;;4923970;28;20162;-80
2022/12/25 11:07:49;;;;;;;19.30;13.13;;;9.00;99.90;;;;;;4905751;28;20058;-79
2022/12/25 11:10:24;;;;;;;18.27;12.75;;;9.10;99.90;;;;;;4928918;28;20060;-80
2022/12/25 11:12:50;;;;;;;18.33;13.23;;;9.10;99.90;;;;;;4913266;28;20178;-79
2022/12/25 11:15:43;;;;;;;19.75;12.27;;;9.10;99.90;;;;;;4915135;28;20047;-79
2022/12/25 11:18:32;;;;;;;19.60;13.10;;;9.10;99.90;;;;;;4910575;29;20071;-71
2022/12/25 11:21:16;;;;;;;19.55;12.48;;;9.20;99.90;;;;;;4931256;28;20055;-80
2022/12/25 11:23:47;;;;;;;19.17;13.23;;;9.20;99.90;;;;;;4934979;28;20528;-80
2022/12/25 11:26:14;;;;;;;18.90;13.60;;;9.20;99.90;;;;;;4910376;28;20103;-80
2022/12/25 11:28:42;;;;;;;20.70;13.45;;;9.20;99.90;;;;;;4936127;28;20054;-79
2022/12/25 11:31:13;;;;;;;22.80;14.45;;;9.20;99.90;;;;;;4901920;28;20494;-80
2022/12/25 11:34:05;;;;;;;23.75;15.68;;;9.30;99.90;;;;;;4905372;28;20040;-79
2022/12/25 11:36:44;;;;;;;25.42;15.45;;;9.30;99.90;;;;;;4929883;28;20091;-79
2022/12/25 11:39:22;;;;;;;20.47;14.77;;;9.30;99.90;;;;;;4937884;28;20062;-71
2022/12/25 11:41:52;;;;;;;21.35;16.05;;;9.30;99.90;;;;;;4921983;28;20043;-71
2022/12/25 11:44:44;;;;;;;21.88;15.75;;;9.30;99.90;;;;;;4928013;29;20059;-71
2022/12/25 11:47:39;;;;;;;25.10;15.90;;;9.30;99.90;;;;;;4928636;28;20486;-70
2022/12/25 11:50:22;;;;;;;24.45;15.93;;;9.30;99.90;;;;;;4914843;28;20059;-71
2022/12/25 11:52:49;;;;;;;23.77;16.92;;;9.20;99.90;;;;;;4921849;28;20406;-71
2022/12/25 11:55:29;;;;;;;19.50;15.82;;;9.40;99.90;;;;;;4908896;28;20090;-71
2022/12/25 11:58:01;;;;;;;21.42;16.77;;;9.40;99.90;;;;;;4916342;28;20063;-71
2022/12/25 12:00:30;;;;;;;19.35;14.82;;;9.40;99.90;;;;;;4915150;29;20062;-71
2022/12/25 12:03:02;;;;;;;18.35;15.10;;;9.40;99.90;;;;;;4912422;28;20043;-71
2022/12/25 12:05:42;;;;;;;21.27;16.45;;;9.40;99.90;;;;;;4928455;28;20035;-71
2022/12/25 12:08:09;;;;;;;20.17;16.23;;;9.50;99.90;;;;;;4935693;28;20047;-71
2022/12/25 12:10:44;;;;;;;18.02;15.20;;;9.40;99.90;;;;;;4925478;28;20544;-71
2022/12/25 12:13:19;;;;;;;20.90;16.10;;;9.50;99.90;;;;;;4926630;28;20051;-79
2022/12/25 12:15:47;;;;;;;22.85;17.35;;;9.50;99.90;;;;;;4927756;28;20050;-79
2022/12/25 12:18:25;;;;;;;23.10;15.80;;;9.40;99.90;;;;;;4924706;29;20051;-78
2022/12/25 12:21:01;;;;;;;22.17;16.05;;;9.50;99.90;;;;;;4908421;29;20051;-78
2022/12/25 12:23:29;;;;;;;19.60;15.23;;;9.50;99.90;;;;;;4908410;29;20202;-78
2022/12/25 12:25:56;;;;;;;21.23;16.48;;;9.50;99.90;;;;;;4926991;29;20040;-79
2022/12/25 12:28:28;;;;;;;22.30;16.30;;;9.50;99.90;;;;;;4907393;29;20043;-78
2022/12/25 12:30:59;;;;;;;22.10;17.40;;;9.50;99.90;;;;;;4909309;29;20529;-79
2022/12/25 12:33:30;;;;;;;21.65;17.08;;;9.50;99.90;;;;;;4907393;29;20146;-78
2022/12/25 12:35:57;;;;;;;21.92;17.25;;;9.50;99.90;;;;;;4922885;29;20174;-78
2022/12/25 12:38:23;;;;;;;24.88;17.65;;;9.50;99.90;;;;;;4891471;29;20060;-79
2022/12/25 12:40:56;;;;;;;24.42;17.88;;;9.50;99.90;;;;;;4924899;29;20051;-78
2022/12/25 12:43:41;;;;;;;21.95;17.88;;;9.50;99.90;;;;;;4926024;29;20086;-78
2022/12/25 12:46:15;;;;;;;25.63;19.02;;;9.50;99.90;;;;;;4922373;29;20154;-78
2022/12/25 12:48:44;;;;;;;24.60;18.98;;;9.50;99.90;;;;;;4910175;29;20565;-78
2022/12/25 12:51:14;;;;;;;23.70;19.70;;;9.50;99.90;;;;;;4924285;29;20047;-78
2022/12/25 12:53:42;;;;;;;27.42;21.33;;;9.50;99.90;;;;;;4936993;28;20181;-79
2022/12/25 12:56:14;;;;;;;23.85;19.63;;;9.50;99.90;;;;;;4911202;29;20135;-78
2022/12/25 12:58:48;;;;;;;24.10;21.15;;;9.50;99.90;;;;;;4911114;29;20195;-79
2022/12/25 13:01:25;;;;;;;27.88;23.30;;;9.50;99.90;;;;;;4921438;29;22082;-79
2022/12/25 13:04:16;;;;;;;28.00;23.05;;;9.50;99.90;;;;;;4924935;29;20549;-79
2022/12/25 13:06:50;;;;;;;;;;;9.50;99.90;;;;;;4924923;29;20044;-79
2022/12/25 13:09:37;;;;;;;26.10;23.40;;;9.40;99.90;;;;;;4925447;29;20492;-78
2022/12/25 13:12:07;;;;;;;29.83;25.58;;;9.50;99.90;;;;;;4925150;29;20055;-79
2022/12/25 13:14:34;;;;;;;35.17;26.90;;;9.50;99.90;;;;;;4921765;29;20059;-78
2022/12/25 13:17:05;;;;;;;34.50;27.98;;;9.40;99.90;;;;;;4926139;29;20111;-78
2022/12/25 13:19:32;;;;;;;35.13;26.27;;;9.40;99.90;;;;;;4925387;29;20047;-79
2022/12/25 13:22:04;;;;;;;31.05;24.17;;;9.40;99.90;;;;;;4923094;29;20044;-79
2022/12/25 13:24:33;;;;;;;26.60;22.67;;;9.40;99.90;;;;;;4925032;29;20533;-79
2022/12/25 13:26:59;;;;;;;31.92;23.85;;;9.40;99.90;;;;;;4907449;29;20103;-79
2022/12/25 13:29:37;;;;;;;36.80;25.63;;;9.40;99.90;;;;;;4908186;29;20046;-79
2022/12/25 13:32:05;;;;;;;29.33;24.02;;;9.40;99.90;;;;;;4892273;29;20332;-79
2022/12/25 13:34:42;;;;;;;29.80;23.33;;;9.40;99.90;;;;;;4921288;29;20499;-79
2022/12/25 13:37:16;;;;;;;32.45;23.48;;;9.40;99.90;;;;;;4891070;29;20060;-79
2022/12/25 13:39:50;;;;;;;34.40;23.80;;;9.40;99.90;;;;;;4919521;28;20050;-80
2022/12/25 13:42:23;;;;;;;30.33;21.42;;;9.30;99.90;;;;;;4908583;29;20134;-79
2022/12/25 13:44:53;;;;;;;30.40;20.38;;;9.40;99.90;;;;;;4921322;29;20074;-79
2022/12/25 13:47:35;;;;;;;31.10;21.30;;;9.30;99.90;;;;;;4909648;29;20130;-80
2022/12/25 13:50:23;;;;;;;25.00;19.90;;;9.30;99.90;;;;;;4923091;29;20333;-80
2022/12/25 13:52:50;;;;;;;30.80;21.13;;;9.30;99.90;;;;;;4906751;29;20661;-72
2022/12/25 13:55:20;;;;;;;26.67;20.50;;;9.30;99.90;;;;;;4908684;29;20059;-72
2022/12/25 13:57:51;;;;;;;27.95;21.15;;;9.30;99.90;;;;;;4923352;28;20055;-71
2022/12/25 14:00:39;;;;;;;31.23;23.40;;;9.30;99.90;;;;;;4907788;29;20107;-71
2022/12/25 14:03:06;;;;;;;30.42;22.17;;;9.30;99.90;;;;;;4904578;29;20280;-71
2022/12/25 14:05:37;;;;;;;32.97;23.98;;;9.30;99.90;;;;;;4908909;29;20728;-71
2022/12/25 14:08:13;;;;;;;33.08;23.80;;;9.30;99.90;;;;;;4924094;29;20055;-71
2022/12/25 14:10:40;;;;;;;33.03;23.10;;;9.30;99.90;;;;;;4920596;29;20402;-71
2022/12/25 14:13:13;;;;;;;28.42;23.42;;;9.30;99.90;;;;;;4921806;29;20119;-71
2022/12/25 14:15:40;;;;;;;35.58;25.05;;;9.30;99.90;;;;;;4922501;29;20082;-79
2022/12/25 14:18:12;;;;;;;35.08;25.92;;;9.20;99.90;;;;;;4907987;28;20063;-71
2022/12/25 14:20:41;;;;;;;31.33;26.05;;;9.30;99.90;;;;;;4914598;28;20398;-71
2022/12/25 14:23:13;;;;;;;34.63;26.85;;;9.20;99.90;;;;;;4916789;28;20043;-72
2022/12/25 14:25:45;;;;;;;32.38;26.33;;;9.20;99.90;;;;;;4913460;28;20051;-72
2022/12/25 14:28:31;;;;;;;31.15;26.30;;;9.20;99.90;;;;;;4911619;28;20130;-70
2022/12/25 14:31:01;;;;;;;33.13;26.95;;;9.20;99.90;;;;;;4912725;28;20062;-70
2022/12/25 14:33:34;;;;;;;34.78;28.52;;;9.20;99.90;;;;;;4911461;29;20863;-71